createdAt,value
2023-01-21T00:00:11.291Z,2.30
2023-01-21T00:02:38.073Z,2.20
2023-01-21T00:07:31.832Z,2.40
2023-01-21T00:09:58.442Z,2.20
2023-01-21T00:12:25.075Z,2.10
2023-01-21T00:14:51.739Z,1.90
2023-01-21T00:17:18.395Z,2.00
2023-01-21T00:19:45.009Z,1.80
2023-01-21T00:22:12.418Z,2.00
2023-01-21T00:24:39.052Z,1.60
2023-01-21T00:27:05.831Z,1.60
2023-01-21T00:29:32.487Z,2.00
2023-01-21T00:31:59.217Z,1.70
2023-01-21T00:34:25.880Z,1.90
2023-01-21T00:36:52.857Z,1.50
2023-01-21T00:39:20.316Z,1.70
2023-01-21T00:41:47.020Z,1.70
2023-01-21T00:44:13.852Z,1.60
2023-01-21T00:49:07.340Z,1.60
2023-01-21T00:56:06.881Z,1.80
2023-01-21T01:01:06.608Z,1.20
2023-01-21T01:03:34.036Z,1.30
2023-01-21T01:06:13.466Z,1.70
2023-01-21T01:08:40.291Z,1.80
2023-01-21T01:11:07.456Z,1.60
2023-01-21T01:13:35.945Z,1.60
2023-01-21T01:16:03.076Z,1.80
2023-01-21T01:18:32.651Z,2.00
2023-01-21T01:21:00.127Z,1.80
2023-01-21T01:23:26.955Z,1.60
2023-01-21T01:28:33.022Z,1.30
2023-01-21T01:31:00.474Z,1.10
2023-01-21T01:33:27.902Z,1.30
2023-01-21T01:35:54.814Z,1.30
2023-01-21T01:40:50.894Z,1.40
2023-01-21T01:43:24.424Z,1.30
2023-01-21T01:45:52.086Z,1.40
2023-01-21T01:48:31.360Z,1.40
2023-01-21T01:51:03.402Z,1.20
2023-01-21T01:53:32.069Z,1.50
2023-01-21T01:55:59.839Z,1.20
2023-01-21T01:58:27.683Z,1.00
2023-01-21T02:00:54.690Z,1.30
2023-01-21T02:03:40.386Z,1.10
2023-01-21T02:06:07.675Z,1.40
2023-01-21T02:08:36.388Z,1.10
2023-01-21T02:11:10.699Z,1.50
2023-01-21T02:18:16.070Z,1.10
2023-01-21T02:21:07.749Z,1.20
2023-01-21T02:23:34.359Z,1.40
2023-01-21T02:26:49.059Z,1.10
2023-01-21T02:29:36.980Z,1.10
2023-01-21T02:32:16.319Z,1.10
2023-01-21T02:35:01.378Z,1.00
2023-01-21T02:38:03.680Z,0.90
2023-01-21T02:40:37.525Z,0.90
2023-01-21T02:43:16.235Z,1.00
2023-01-21T02:45:51.940Z,1.00
2023-01-21T02:48:31.729Z,3.20
2023-01-21T02:50:59.203Z,2.70
2023-01-21T02:53:30.757Z,8.40
2023-01-21T02:56:12.067Z,8.50
2023-01-21T02:58:43.613Z,3.60
2023-01-21T03:01:32.073Z,2.40
2023-01-21T03:04:12.939Z,1.80
2023-01-21T03:06:58.589Z,2.10
2023-01-21T03:09:27.831Z,3.70
2023-01-21T03:12:16.535Z,6.10
2023-01-21T03:15:38.992Z,5.10
2023-01-21T03:18:43.511Z,3.60
2023-01-21T03:21:24.373Z,4.20
2023-01-21T03:23:53.439Z,4.20
2023-01-21T03:26:29.644Z,4.70
2023-01-21T03:29:01.307Z,4.50
2023-01-21T03:31:33.126Z,3.30
2023-01-21T03:34:05.614Z,4.10
2023-01-21T03:36:37.100Z,3.70
2023-01-21T03:39:34.906Z,3.10
2023-01-21T03:42:02.694Z,4.50
2023-01-21T03:44:29.458Z,3.70
2023-01-21T03:47:17.887Z,3.70
2023-01-21T03:49:58.408Z,3.70
2023-01-21T03:52:26.816Z,3.20
2023-01-21T03:54:54.423Z,4.30
2023-01-21T03:57:21.359Z,3.00
2023-01-21T04:02:20.103Z,2.30
2023-01-21T04:04:47.754Z,2.70
2023-01-21T04:07:16.240Z,3.30
2023-01-21T04:09:43.408Z,2.70
2023-01-21T04:12:10.516Z,2.90
2023-01-21T04:14:37.621Z,3.20
2023-01-21T04:17:04.955Z,2.60
2023-01-21T04:19:31.593Z,3.70
2023-01-21T04:21:58.399Z,3.50
2023-01-21T04:24:25.462Z,2.60
2023-01-21T04:26:52.803Z,3.60
2023-01-21T04:29:19.822Z,6.10
2023-01-21T04:31:47.734Z,5.60
2023-01-21T04:34:16.937Z,3.30
2023-01-21T04:36:43.666Z,2.80
2023-01-21T04:39:11.619Z,2.30
2023-01-21T04:41:38.222Z,2.10
2023-01-21T04:44:05.129Z,1.90
2023-01-21T04:46:31.814Z,2.40
2023-01-21T04:48:58.486Z,2.10
2023-01-21T04:51:25.201Z,1.40
2023-01-21T04:53:51.859Z,1.80
2023-01-21T04:56:18.527Z,1.50
2023-01-21T04:58:45.204Z,1.70
2023-01-21T05:01:11.999Z,1.00
2023-01-21T05:03:38.648Z,1.00
2023-01-21T05:06:05.368Z,1.40
2023-01-21T05:08:32.055Z,1.40
2023-01-21T05:10:58.753Z,1.40
2023-01-21T05:13:25.393Z,0.80
2023-01-21T05:15:52.761Z,1.00
2023-01-21T05:18:19.440Z,0.60
2023-01-21T05:20:46.215Z,1.10
2023-01-21T05:23:12.947Z,0.70
2023-01-21T05:25:39.554Z,0.90
2023-01-21T05:28:06.172Z,1.00
2023-01-21T05:30:32.891Z,0.60
2023-01-21T05:35:26.199Z,0.60
2023-01-21T05:37:52.821Z,0.60
2023-01-21T05:40:19.771Z,0.50
2023-01-21T05:42:47.029Z,0.40
2023-01-21T05:45:14.643Z,0.60
2023-01-21T05:47:41.380Z,0.80
2023-01-21T05:50:09.124Z,1.00
2023-01-21T05:52:36.273Z,0.80
2023-01-21T05:55:03.850Z,0.30
2023-01-21T05:57:31.634Z,0.60
2023-01-21T05:59:59.010Z,1.00
2023-01-21T06:02:25.884Z,0.70
2023-01-21T06:04:52.791Z,0.60
2023-01-21T06:07:19.479Z,0.60
2023-01-21T06:09:46.113Z,0.70
2023-01-21T06:12:12.764Z,0.60
2023-01-21T06:14:39.398Z,0.80
2023-01-21T06:17:05.982Z,2.10
2023-01-21T06:19:32.577Z,0.80
2023-01-21T06:21:59.207Z,0.50
2023-01-21T06:24:25.797Z,0.70
2023-01-21T06:26:53.311Z,0.70
2023-01-21T06:29:19.974Z,0.80
2023-01-21T06:31:46.824Z,0.80
2023-01-21T06:34:13.766Z,0.90
2023-01-21T06:39:10.983Z,0.70
2023-01-21T06:41:37.793Z,0.90
2023-01-21T06:44:05.399Z,0.40
2023-01-21T06:46:32.286Z,0.90
2023-01-21T06:48:59.472Z,0.70
2023-01-21T06:51:26.207Z,1.00
2023-01-21T06:53:52.980Z,1.10
2023-01-21T06:56:20.012Z,1.00
2023-01-21T06:58:46.599Z,0.90
2023-01-21T07:01:13.365Z,0.80
2023-01-21T07:06:07.220Z,0.80
2023-01-21T07:08:33.969Z,1.10
2023-01-21T07:11:00.603Z,1.10
2023-01-21T07:13:27.314Z,10.70
2023-01-21T07:15:59.885Z,4.50
2023-01-21T07:18:26.663Z,2.10
2023-01-21T07:23:19.941Z,2.30
2023-01-21T07:25:46.680Z,2.10
2023-01-21T07:28:13.413Z,2.00
2023-01-21T07:30:40.203Z,1.80
2023-01-21T07:35:35.445Z,1.60
2023-01-21T07:38:02.750Z,1.30
2023-01-21T07:40:29.546Z,1.40
2023-01-21T07:42:56.633Z,1.50
2023-01-21T07:45:24.710Z,1.70
2023-01-21T07:47:51.579Z,2.20
2023-01-21T07:52:44.739Z,4.20
2023-01-21T07:55:12.710Z,3.60
2023-01-21T07:57:39.932Z,4.20
2023-01-21T08:00:07.411Z,3.90
2023-01-21T08:02:39.107Z,3.60
2023-01-21T08:05:07.280Z,3.70
2023-01-21T08:07:33.976Z,2.30
2023-01-21T08:10:00.812Z,2.70
2023-01-21T08:12:27.510Z,3.10
2023-01-21T08:14:54.611Z,2.80
2023-01-21T08:17:21.342Z,2.60
2023-01-21T08:19:48.080Z,2.50
2023-01-21T08:24:41.339Z,3.20
2023-01-21T08:27:08.101Z,2.00
2023-01-21T08:32:01.681Z,1.70
2023-01-21T08:34:28.623Z,2.10
2023-01-21T08:36:55.258Z,1.60
2023-01-21T08:39:22.124Z,2.10
2023-01-21T08:41:48.953Z,2.10
2023-01-21T08:44:15.698Z,2.60
2023-01-21T08:46:42.292Z,2.50
2023-01-21T08:49:09.105Z,2.90
2023-01-21T08:54:02.288Z,3.90
2023-01-21T08:56:28.989Z,3.20
2023-01-21T08:58:57.364Z,2.60
2023-01-21T09:01:25.913Z,2.90
2023-01-21T09:04:00.549Z,2.90
2023-01-21T09:11:03.778Z,3.00
2023-01-21T09:13:32.126Z,3.40
2023-01-21T09:15:59.060Z,8.00
2023-01-21T09:22:39.515Z,11.60
2023-01-21T09:25:10.221Z,8.90
2023-01-21T09:27:37.676Z,10.40
2023-01-21T09:30:04.685Z,7.00
2023-01-21T09:32:31.356Z,3.70
2023-01-21T09:34:58.033Z,3.90
2023-01-21T09:37:24.673Z,2.80
2023-01-21T09:39:51.271Z,2.90
2023-01-21T09:42:23.214Z,2.50
2023-01-21T09:49:19.333Z,2.20
2023-01-21T09:52:23.683Z,2.30
2023-01-21T09:54:50.647Z,2.00
2023-01-21T09:57:38.971Z,2.60
2023-01-21T10:00:37.006Z,1.80
2023-01-21T10:03:32.620Z,1.70
2023-01-21T10:06:35.242Z,1.80
2023-01-21T10:09:01.875Z,1.80
2023-01-21T10:11:52.918Z,1.10
2023-01-21T10:14:39.220Z,1.20
2023-01-21T10:17:42.866Z,1.10
2023-01-21T10:20:20.871Z,1.70
2023-01-21T10:23:12.708Z,1.60
2023-01-21T10:25:41.098Z,1.90
2023-01-21T10:28:21.553Z,1.60
2023-01-21T10:31:06.115Z,2.00
2023-01-21T10:33:34.097Z,3.00
2023-01-21T10:36:26.986Z,2.30
2023-01-21T10:39:31.392Z,1.80
2023-01-21T10:42:16.704Z,2.00
2023-01-21T10:45:14.273Z,2.10
2023-01-21T10:48:18.255Z,2.20
2023-01-21T10:51:02.294Z,2.40
2023-01-21T10:53:47.993Z,2.50
2023-01-21T10:56:23.762Z,2.60
2023-01-21T10:59:22.112Z,2.10
2023-01-21T11:05:51.964Z,1.70
2023-01-21T11:08:21.622Z,2.40
2023-01-21T11:10:53.407Z,3.00
2023-01-21T11:13:20.067Z,2.40
2023-01-21T11:15:52.413Z,2.50
2023-01-21T11:18:28.983Z,3.10
2023-01-21T11:20:59.250Z,3.70
2023-01-21T11:23:31.691Z,2.60
2023-01-21T11:26:09.420Z,3.00
2023-01-21T11:28:37.041Z,2.90
2023-01-21T11:33:43.220Z,3.00
2023-01-21T11:36:18.608Z,3.00
2023-01-21T11:38:59.748Z,2.50
2023-01-21T11:41:26.449Z,3.40
2023-01-21T11:46:39.507Z,2.40
2023-01-21T11:49:27.670Z,2.90
2023-01-21T11:52:15.633Z,2.40
2023-01-21T11:54:42.612Z,3.10
2023-01-21T11:57:19.626Z,3.20
2023-01-21T11:59:48.138Z,2.80
2023-01-21T12:02:31.860Z,3.10
2023-01-21T12:05:09.200Z,2.10
2023-01-21T12:07:40.474Z,2.10
2023-01-21T12:10:13.378Z,2.40
2023-01-21T12:13:12.172Z,2.70
2023-01-21T12:15:38.817Z,2.50
2023-01-21T12:21:18.864Z,2.30
2023-01-21T12:24:13.336Z,2.40
2023-01-21T12:26:53.271Z,2.40
2023-01-21T12:29:25.706Z,2.30
2023-01-21T12:32:03.334Z,2.30
2023-01-21T12:34:40.066Z,2.10
2023-01-21T12:37:16.459Z,2.00
2023-01-21T12:39:44.675Z,1.80
2023-01-21T12:42:21.316Z,2.40
2023-01-21T12:44:59.646Z,2.10
2023-01-21T12:47:26.415Z,2.40
2023-01-21T12:54:10.103Z,2.00
2023-01-21T12:57:05.003Z,2.30
2023-01-21T13:04:04.976Z,2.50
2023-01-21T13:06:54.255Z,2.20
2023-01-21T13:09:49.366Z,2.10
2023-01-21T13:12:20.924Z,2.10
2023-01-21T13:14:55.159Z,1.90
2023-01-21T13:17:28.065Z,2.10
2023-01-21T13:19:54.763Z,1.90
2023-01-21T13:25:28.740Z,2.60
2023-01-21T13:32:22.247Z,3.70
2023-01-21T13:35:07.648Z,3.40
2023-01-21T13:37:48.214Z,4.20
2023-01-21T13:40:57.328Z,3.50
2023-01-21T13:43:26.879Z,4.60
2023-01-21T13:46:18.444Z,5.00
2023-01-21T13:53:11.025Z,5.60
2023-01-21T13:55:40.318Z,5.30
2023-01-21T14:02:39.835Z,6.00
2023-01-21T14:05:20.196Z,6.60
2023-01-21T14:07:54.226Z,8.10
2023-01-21T14:10:33.194Z,7.40
2023-01-21T14:13:09.026Z,6.60
2023-01-21T14:15:54.079Z,6.50
2023-01-21T14:18:36.199Z,5.50
2023-01-21T14:21:21.862Z,6.30
2023-01-21T14:24:17.720Z,6.80
2023-01-21T14:26:53.206Z,4.80
2023-01-21T14:29:42.241Z,5.50
2023-01-21T14:32:21.055Z,5.50
2023-01-21T14:37:38.239Z,3.90
2023-01-21T14:40:17.067Z,4.00
2023-01-21T14:42:49.711Z,5.50
2023-01-21T14:45:26.098Z,4.60
2023-01-21T14:47:54.586Z,4.60
2023-01-21T14:50:51.074Z,4.10
2023-01-21T14:53:19.272Z,4.40
2023-01-21T14:55:45.988Z,3.50
2023-01-21T15:00:49.107Z,2.90
2023-01-21T15:03:27.607Z,2.60
2023-01-21T15:06:00.662Z,2.60
2023-01-21T15:08:45.584Z,2.20
2023-01-21T15:11:41.012Z,2.30
2023-01-21T15:14:25.773Z,2.80
2023-01-21T15:19:20.840Z,2.50
2023-01-21T15:21:59.823Z,2.20
2023-01-21T15:24:30.610Z,2.30
2023-01-21T15:27:22.736Z,2.20
2023-01-21T15:29:55.341Z,2.10
2023-01-21T15:32:37.470Z,2.30
2023-01-21T15:35:13.574Z,2.20
2023-01-21T15:37:44.000Z,2.30
2023-01-21T15:40:21.706Z,2.60
2023-01-21T15:42:58.375Z,2.70
2023-01-21T15:45:43.859Z,2.00
2023-01-21T15:48:16.284Z,2.80
2023-01-21T15:50:57.378Z,2.20
2023-01-21T15:57:54.607Z,1.90
2023-01-21T16:00:43.785Z,2.90
2023-01-21T16:03:33.021Z,3.20
2023-01-21T16:06:07.780Z,2.40
2023-01-21T16:08:58.248Z,2.60
2023-01-21T16:11:31.910Z,3.00
2023-01-21T16:14:13.822Z,3.80
2023-01-21T16:17:19.025Z,3.20
2023-01-21T16:19:50.279Z,2.80
2023-01-21T16:22:27.539Z,2.70
2023-01-21T16:25:01.100Z,2.90
2023-01-21T16:27:31.059Z,2.30
2023-01-21T16:30:00.760Z,3.10
2023-01-21T16:32:28.054Z,2.90
2023-01-21T16:34:54.721Z,2.70
2023-01-21T16:37:24.828Z,2.60
2023-01-21T16:40:12.181Z,3.40
2023-01-21T16:42:44.305Z,3.00
2023-01-21T16:45:11.101Z,3.50
2023-01-21T16:50:05.766Z,3.80
2023-01-21T16:52:32.950Z,3.40
2023-01-21T16:54:59.644Z,3.60
2023-01-21T17:00:02.525Z,3.30
2023-01-21T17:02:34.042Z,3.80
2023-01-21T17:05:06.713Z,3.20
2023-01-21T17:07:45.789Z,3.20
2023-01-21T17:10:15.783Z,2.90
2023-01-21T17:12:48.626Z,2.80
2023-01-21T17:15:30.347Z,2.50
2023-01-21T17:18:00.273Z,2.30
2023-01-21T17:20:41.040Z,2.30
2023-01-21T17:23:14.991Z,2.50
2023-01-21T17:25:42.564Z,2.60
2023-01-21T17:28:25.186Z,2.40
2023-01-21T17:31:08.824Z,2.60
2023-01-21T17:33:35.621Z,2.70
2023-01-21T17:36:13.811Z,2.60
2023-01-21T17:38:45.987Z,3.00
2023-01-21T17:41:25.118Z,3.20
2023-01-21T17:43:55.795Z,2.80
2023-01-21T17:50:36.235Z,2.80
2023-01-21T17:55:36.786Z,3.50
2023-01-21T17:58:06.116Z,3.60
2023-01-21T18:00:38.495Z,2.90
2023-01-21T18:03:05.404Z,3.20
2023-01-21T18:05:32.478Z,3.90
2023-01-21T18:07:59.198Z,3.10
2023-01-21T18:12:56.257Z,2.70
2023-01-21T18:15:23.049Z,2.20
2023-01-21T18:17:57.935Z,3.00
2023-01-21T18:24:45.117Z,4.20
2023-01-21T18:27:12.121Z,3.40
2023-01-21T18:29:38.814Z,4.30
2023-01-21T18:34:32.381Z,3.50
2023-01-21T18:39:26.064Z,3.30
2023-01-21T18:41:52.875Z,3.40
2023-01-21T18:48:45.192Z,4.70
2023-01-21T18:51:13.106Z,3.70
2023-01-21T18:53:39.861Z,3.40
2023-01-21T18:58:36.664Z,5.20
2023-01-21T19:01:13.930Z,4.00
2023-01-21T19:03:45.562Z,3.40
2023-01-21T19:06:16.512Z,3.90
2023-01-21T19:08:45.222Z,4.20
2023-01-21T19:11:12.749Z,3.10
2023-01-21T19:13:39.436Z,3.00
2023-01-21T19:16:12.732Z,3.50
2023-01-21T19:18:39.379Z,4.10
2023-01-21T19:21:08.220Z,3.60
2023-01-21T19:23:35.912Z,3.10
2023-01-21T19:26:03.738Z,3.30
2023-01-21T19:28:31.495Z,2.90
2023-01-21T19:30:58.557Z,3.50
2023-01-21T19:33:26.052Z,3.90
2023-01-21T19:36:03.729Z,4.70
2023-01-21T19:38:30.621Z,4.70
2023-01-21T19:40:57.396Z,3.60
2023-01-21T19:45:51.846Z,3.60
2023-01-21T19:48:21.014Z,3.20
2023-01-21T19:50:48.098Z,3.30
2023-01-21T19:53:17.557Z,3.40
2023-01-21T19:55:46.347Z,3.60
2023-01-21T19:58:22.438Z,3.30
2023-01-21T20:00:51.141Z,3.70
2023-01-21T20:07:45.984Z,3.20
2023-01-21T20:10:21.486Z,4.00
2023-01-21T20:12:48.711Z,3.30
2023-01-21T20:15:17.549Z,3.60
2023-01-21T20:17:48.939Z,4.20
2023-01-21T20:20:21.649Z,5.30
2023-01-21T20:25:17.757Z,3.70
2023-01-21T20:27:50.685Z,3.80
2023-01-21T20:30:23.671Z,3.20
2023-01-21T20:32:50.336Z,4.00
2023-01-21T20:35:18.980Z,3.70
2023-01-21T20:37:50.626Z,3.90
2023-01-21T20:40:22.932Z,3.40
2023-01-21T20:42:50.618Z,4.90
2023-01-21T20:45:19.647Z,5.60
2023-01-21T20:47:50.502Z,6.70
2023-01-21T20:50:23.757Z,6.60
2023-01-21T20:52:51.957Z,5.80
2023-01-21T20:55:21.539Z,7.40
2023-01-21T20:57:48.487Z,7.80
2023-01-21T21:00:28.209Z,6.70
2023-01-21T21:02:55.796Z,5.90
2023-01-21T21:05:23.973Z,6.80
2023-01-21T21:07:51.110Z,6.80
2023-01-21T21:10:29.432Z,8.50
2023-01-21T21:12:56.264Z,7.60
2023-01-21T21:15:34.554Z,7.30
2023-01-21T21:18:03.440Z,6.90
2023-01-21T21:20:33.725Z,7.00
2023-01-21T21:23:00.384Z,6.30
2023-01-21T21:25:29.715Z,6.50
2023-01-21T21:27:57.113Z,5.70
2023-01-21T21:30:29.603Z,7.80
2023-01-21T21:32:58.080Z,6.30
2023-01-21T21:35:27.819Z,5.80
2023-01-21T21:37:56.549Z,6.50
2023-01-21T21:40:25.978Z,5.30
2023-01-21T21:43:12.090Z,6.00
2023-01-21T21:45:41.041Z,5.60
2023-01-21T21:48:38.865Z,4.90
2023-01-21T21:51:06.942Z,5.30
2023-01-21T21:53:33.733Z,5.40
2023-01-21T21:56:05.476Z,6.90
2023-01-21T21:58:32.257Z,7.40
2023-01-21T22:03:36.028Z,5.60
2023-01-21T22:08:32.845Z,5.00
2023-01-21T22:11:01.115Z,5.10
2023-01-21T22:13:28.957Z,5.10
2023-01-21T22:15:57.453Z,5.00
2023-01-21T22:18:25.504Z,4.00
2023-01-21T22:20:55.628Z,4.10
2023-01-21T22:23:22.781Z,4.50
2023-01-21T22:25:49.636Z,4.50
2023-01-21T22:28:16.786Z,4.50
2023-01-21T22:30:43.605Z,4.60
2023-01-21T22:33:11.283Z,5.20
2023-01-21T22:35:40.014Z,5.00
2023-01-21T22:38:07.135Z,6.50
2023-01-21T22:40:36.747Z,3.90
2023-01-21T22:47:10.548Z,4.10
2023-01-21T22:52:04.032Z,3.50
2023-01-21T22:54:30.628Z,4.20
2023-01-21T22:56:57.335Z,3.50
2023-01-21T23:01:51.276Z,3.50
2023-01-21T23:04:18.189Z,4.10
2023-01-21T23:09:16.272Z,4.30
2023-01-21T23:11:45.074Z,4.80
2023-01-21T23:14:12.515Z,5.00
2023-01-21T23:16:39.966Z,4.40
2023-01-21T23:19:06.588Z,4.20
2023-01-21T23:21:33.288Z,5.40
2023-01-21T23:26:26.514Z,6.10
2023-01-21T23:31:24.142Z,7.30
2023-01-21T23:33:52.524Z,11.10
2023-01-21T23:36:19.718Z,10.30
2023-01-21T23:38:46.372Z,8.30
2023-01-21T23:41:16.992Z,8.50
2023-01-21T23:43:43.722Z,9.70
2023-01-21T23:46:16.679Z,9.80
2023-01-21T23:48:43.846Z,6.70
2023-01-21T23:51:13.509Z,5.50
2023-01-21T23:53:40.342Z,5.80
2023-01-21T23:58:35.944Z,7.40
